sensor_id;sensor_type;location;lat;lon;timestamp;P1;durP1;ratioP1;P2;durP2;ratioP2
36415;SDS011;22447;44.530;18.620;2022-12-10T00:01:50;230.00;;;96.32;;
36415;SDS011;22447;44.530;18.620;2022-12-10T00:04:17;188.63;;;85.05;;
36415;SDS011;22447;44.530;18.620;2022-12-10T00:06:44;182.75;;;85.88;;
36415;SDS011;22447;44.530;18.620;2022-12-10T00:09:12;179.57;;;82.97;;
36415;SDS011;22447;44.530;18.620;2022-12-10T00:11:43;193.55;;;88.32;;
36415;SDS011;22447;44.530;18.620;2022-12-10T00:14:10;300.38;;;120.47;;
36415;SDS011;22447;44.530;18.620;2022-12-10T00:16:37;277.55;;;112.65;;
36415;SDS011;22447;44.530;18.620;2022-12-10T00:19:03;243.90;;;105.93;;
36415;SDS011;22447;44.530;18.620;2022-12-10T00:21:30;244.35;;;104.63;;
36415;SDS011;22447;44.530;18.620;2022-12-10T00:23:58;276.85;;;113.90;;
36415;SDS011;22447;44.530;18.620;2022-12-10T00:28:52;283.10;;;113.25;;
36415;SDS011;22447;44.530;18.620;2022-12-10T00:31:20;249.73;;;102.80;;
36415;SDS011;22447;44.530;18.620;2022-12-10T00:33:54;270.67;;;100.32;;
36415;SDS011;22447;44.530;18.620;2022-12-10T00:36:25;302.45;;;120.07;;
36415;SDS011;22447;44.530;18.620;2022-12-10T00:38:54;354.70;;;136.65;;
36415;SDS011;22447;44.530;18.620;2022-12-10T00:41:20;428.52;;;163.85;;
36415;SDS011;22447;44.530;18.620;2022-12-10T00:43:46;401.25;;;152.32;;
36415;SDS011;22447;44.530;18.620;2022-12-10T00:46:13;361.30;;;142.82;;
36415;SDS011;22447;44.530;18.620;2022-12-10T00:48:41;358.23;;;144.10;;
36415;SDS011;22447;44.530;18.620;2022-12-10T00:51:10;374.17;;;156.95;;
36415;SDS011;22447;44.530;18.620;2022-12-10T00:53:38;415.40;;;169.32;;
36415;SDS011;22447;44.530;18.620;2022-12-10T00:56:05;399.27;;;165.02;;
36415;SDS011;22447;44.530;18.620;2022-12-10T00:58:33;357.52;;;143.75;;
36415;SDS011;22447;44.530;18.620;2022-12-10T01:01:10;305.58;;;125.95;;
36415;SDS011;22447;44.530;18.620;2022-12-10T01:03:48;206.90;;;85.15;;
36415;SDS011;22447;44.530;18.620;2022-12-10T01:06:16;204.88;;;87.43;;
36415;SDS011;22447;44.530;18.620;2022-12-10T01:08:45;280.45;;;111.13;;
36415;SDS011;22447;44.530;18.620;2022-12-10T01:11:12;294.27;;;112.80;;
36415;SDS011;22447;44.530;18.620;2022-12-10T01:13:39;282.92;;;116.13;;
36415;SDS011;22447;44.530;18.620;2022-12-10T01:16:06;282.55;;;116.70;;
36415;SDS011;22447;44.530;18.620;2022-12-10T01:18:34;310.23;;;138.30;;
36415;SDS011;22447;44.530;18.620;2022-12-10T01:21:04;298.15;;;129.77;;
36415;SDS011;22447;44.530;18.620;2022-12-10T01:23:36;273.15;;;116.47;;
36415;SDS011;22447;44.530;18.620;2022-12-10T01:26:06;218.07;;;94.57;;
36415;SDS011;22447;44.530;18.620;2022-12-10T01:28:34;217.63;;;94.78;;
36415;SDS011;22447;44.530;18.620;2022-12-10T01:31:05;233.18;;;103.85;;
36415;SDS011;22447;44.530;18.620;2022-12-10T01:33:36;244.20;;;110.00;;
36415;SDS011;22447;44.530;18.620;2022-12-10T01:36:07;269.92;;;123.07;;
36415;SDS011;22447;44.530;18.620;2022-12-10T01:38:41;267.08;;;122.57;;
36415;SDS011;22447;44.530;18.620;2022-12-10T01:41:12;216.20;;;102.13;;
36415;SDS011;22447;44.530;18.620;2022-12-10T01:46:15;235.05;;;109.38;;
36415;SDS011;22447;44.530;18.620;2022-12-10T01:48:41;250.18;;;115.18;;
36415;SDS011;22447;44.530;18.620;2022-12-10T01:51:07;271.27;;;121.97;;
36415;SDS011;22447;44.530;18.620;2022-12-10T01:53:34;387.67;;;152.25;;
36415;SDS011;22447;44.530;18.620;2022-12-10T01:56:00;404.80;;;158.32;;
36415;SDS011;22447;44.530;18.620;2022-12-10T01:58:26;325.27;;;133.95;;
36415;SDS011;22447;44.530;18.620;2022-12-10T02:03:36;214.70;;;94.57;;
36415;SDS011;22447;44.530;18.620;2022-12-10T02:06:17;202.00;;;88.80;;
36415;SDS011;22447;44.530;18.620;2022-12-10T02:09:02;209.50;;;94.03;;
36415;SDS011;22447;44.530;18.620;2022-12-10T02:11:40;203.05;;;89.53;;
36415;SDS011;22447;44.530;18.620;2022-12-10T02:14:17;201.30;;;88.65;;
36415;SDS011;22447;44.530;18.620;2022-12-10T02:17:13;194.65;;;83.75;;
36415;SDS011;22447;44.530;18.620;2022-12-10T02:22:15;181.15;;;78.95;;
36415;SDS011;22447;44.530;18.620;2022-12-10T02:24:44;179.63;;;77.88;;
36415;SDS011;22447;44.530;18.620;2022-12-10T02:27:35;200.73;;;90.07;;
36415;SDS011;22447;44.530;18.620;2022-12-10T02:30:21;283.50;;;114.55;;
36415;SDS011;22447;44.530;18.620;2022-12-10T02:32:48;310.63;;;126.65;;
36415;SDS011;22447;44.530;18.620;2022-12-10T02:35:24;302.55;;;118.75;;
36415;SDS011;22447;44.530;18.620;2022-12-10T02:37:59;263.67;;;108.13;;
36415;SDS011;22447;44.530;18.620;2022-12-10T02:40:31;248.15;;;103.22;;
36415;SDS011;22447;44.530;18.620;2022-12-10T02:43:01;240.40;;;99.15;;
36415;SDS011;22447;44.530;18.620;2022-12-10T02:45:28;280.35;;;111.15;;
36415;SDS011;22447;44.530;18.620;2022-12-10T02:47:57;424.90;;;147.32;;
36415;SDS011;22447;44.530;18.620;2022-12-10T02:50:32;434.85;;;150.68;;
36415;SDS011;22447;44.530;18.620;2022-12-10T02:53:02;440.08;;;151.80;;
36415;SDS011;22447;44.530;18.620;2022-12-10T02:55:29;303.15;;;117.22;;
36415;SDS011;22447;44.530;18.620;2022-12-10T03:04:00;180.98;;;74.18;;
36415;SDS011;22447;44.530;18.620;2022-12-10T03:06:39;214.57;;;81.85;;
36415;SDS011;22447;44.530;18.620;2022-12-10T03:09:23;216.27;;;81.35;;
36415;SDS011;22447;44.530;18.620;2022-12-10T03:11:59;158.95;;;67.65;;
36415;SDS011;22447;44.530;18.620;2022-12-10T03:14:35;168.67;;;71.30;;
36415;SDS011;22447;44.530;18.620;2022-12-10T03:17:02;165.40;;;69.20;;
36415;SDS011;22447;44.530;18.620;2022-12-10T03:19:31;128.38;;;54.92;;
36415;SDS011;22447;44.530;18.620;2022-12-10T03:22:03;105.43;;;47.95;;
36415;SDS011;22447;44.530;18.620;2022-12-10T03:24:30;102.43;;;47.47;;
36415;SDS011;22447;44.530;18.620;2022-12-10T03:27:00;107.88;;;48.80;;
36415;SDS011;22447;44.530;18.620;2022-12-10T03:29:31;99.30;;;45.15;;
36415;SDS011;22447;44.530;18.620;2022-12-10T03:32:01;95.05;;;41.67;;
36415;SDS011;22447;44.530;18.620;2022-12-10T03:34:27;97.72;;;44.88;;
36415;SDS011;22447;44.530;18.620;2022-12-10T03:36:54;103.78;;;47.85;;
36415;SDS011;22447;44.530;18.620;2022-12-10T03:39:20;103.68;;;46.17;;
36415;SDS011;22447;44.530;18.620;2022-12-10T03:41:47;112.75;;;47.83;;
36415;SDS011;22447;44.530;18.620;2022-12-10T03:44:13;135.98;;;59.85;;
36415;SDS011;22447;44.530;18.620;2022-12-10T03:46:51;133.20;;;57.78;;
36415;SDS011;22447;44.530;18.620;2022-12-10T03:49:17;123.65;;;55.55;;
36415;SDS011;22447;44.530;18.620;2022-12-10T03:51:43;101.20;;;46.53;;
36415;SDS011;22447;44.530;18.620;2022-12-10T03:54:09;99.03;;;45.60;;
36415;SDS011;22447;44.530;18.620;2022-12-10T03:56:34;94.90;;;45.78;;
36415;SDS011;22447;44.530;18.620;2022-12-10T03:59:00;90.35;;;42.22;;
36415;SDS011;22447;44.530;18.620;2022-12-10T04:01:26;96.90;;;41.30;;
36415;SDS011;22447;44.530;18.620;2022-12-10T04:03:52;77.03;;;37.45;;
36415;SDS011;22447;44.530;18.620;2022-12-10T04:06:18;69.43;;;36.42;;
36415;SDS011;22447;44.530;18.620;2022-12-10T04:08:46;73.60;;;36.58;;
36415;SDS011;22447;44.530;18.620;2022-12-10T04:11:13;92.03;;;42.40;;
36415;SDS011;22447;44.530;18.620;2022-12-10T04:13:40;87.97;;;41.53;;
36415;SDS011;22447;44.530;18.620;2022-12-10T04:16:25;95.15;;;41.22;;
36415;SDS011;22447;44.530;18.620;2022-12-10T04:18:51;77.68;;;37.33;;
36415;SDS011;22447;44.530;18.620;2022-12-10T04:21:18;82.13;;;37.70;;
36415;SDS011;22447;44.530;18.620;2022-12-10T04:24:03;82.05;;;39.60;;
36415;SDS011;22447;44.530;18.620;2022-12-10T04:26:48;92.80;;;44.50;;
36415;SDS011;22447;44.530;18.620;2022-12-10T04:29:21;92.50;;;44.67;;
36415;SDS011;22447;44.530;18.620;2022-12-10T04:31:55;144.77;;;66.50;;
36415;SDS011;22447;44.530;18.620;2022-12-10T04:34:21;210.93;;;82.78;;
36415;SDS011;22447;44.530;18.620;2022-12-10T04:36:48;169.63;;;66.28;;
36415;SDS011;22447;44.530;18.620;2022-12-10T04:39:14;169.90;;;66.55;;
36415;SDS011;22447;44.530;18.620;2022-12-10T04:41:41;181.68;;;70.78;;
36415;SDS011;22447;44.530;18.620;2022-12-10T04:44:09;272.45;;;99.10;;
36415;SDS011;22447;44.530;18.620;2022-12-10T04:46:35;200.85;;;78.05;;
36415;SDS011;22447;44.530;18.620;2022-12-10T04:49:02;228.50;;;84.10;;
36415;SDS011;22447;44.530;18.620;2022-12-10T04:51:29;199.50;;;78.60;;
36415;SDS011;22447;44.530;18.620;2022-12-10T04:53:55;206.68;;;81.90;;
36415;SDS011;22447;44.530;18.620;2022-12-10T04:56:21;159.50;;;64.68;;
36415;SDS011;22447;44.530;18.620;2022-12-10T04:58:47;121.80;;;48.78;;
36415;SDS011;22447;44.530;18.620;2022-12-10T05:01:13;105.97;;;45.70;;
36415;SDS011;22447;44.530;18.620;2022-12-10T05:03:39;121.45;;;50.20;;
36415;SDS011;22447;44.530;18.620;2022-12-10T05:06:10;130.00;;;51.95;;
36415;SDS011;22447;44.530;18.620;2022-12-10T05:08:38;102.25;;;43.30;;
36415;SDS011;22447;44.530;18.620;2022-12-10T05:11:06;101.22;;;41.75;;
36415;SDS011;22447;44.530;18.620;2022-12-10T05:13:34;95.72;;;43.80;;
36415;SDS011;22447;44.530;18.620;2022-12-10T05:16:01;92.97;;;45.53;;
36415;SDS011;22447;44.530;18.620;2022-12-10T05:18:28;102.68;;;44.28;;
36415;SDS011;22447;44.530;18.620;2022-12-10T05:20:54;125.97;;;51.33;;
36415;SDS011;22447;44.530;18.620;2022-12-10T05:23:22;166.07;;;66.75;;
36415;SDS011;22447;44.530;18.620;2022-12-10T05:26:02;166.10;;;65.32;;
36415;SDS011;22447;44.530;18.620;2022-12-10T05:28:30;159.70;;;62.28;;
36415;SDS011;22447;44.530;18.620;2022-12-10T05:30:58;118.60;;;51.63;;
36415;SDS011;22447;44.530;18.620;2022-12-10T05:33:24;97.78;;;48.03;;
36415;SDS011;22447;44.530;18.620;2022-12-10T05:35:53;82.90;;;40.17;;
36415;SDS011;22447;44.530;18.620;2022-12-10T05:38:20;99.80;;;45.50;;
36415;SDS011;22447;44.530;18.620;2022-12-10T05:40:46;97.22;;;42.92;;
36415;SDS011;22447;44.530;18.620;2022-12-10T05:43:12;110.60;;;44.83;;
36415;SDS011;22447;44.530;18.620;2022-12-10T05:45:38;90.53;;;42.60;;
36415;SDS011;22447;44.530;18.620;2022-12-10T05:48:04;110.47;;;47.28;;
36415;SDS011;22447;44.530;18.620;2022-12-10T05:50:31;103.75;;;44.28;;
36415;SDS011;22447;44.530;18.620;2022-12-10T05:52:57;106.78;;;44.78;;
36415;SDS011;22447;44.530;18.620;2022-12-10T05:55:23;117.30;;;49.05;;
36415;SDS011;22447;44.530;18.620;2022-12-10T05:57:50;101.80;;;42.85;;
36415;SDS011;22447;44.530;18.620;2022-12-10T06:00:16;112.47;;;47.15;;
36415;SDS011;22447;44.530;18.620;2022-12-10T06:02:42;173.57;;;66.07;;
36415;SDS011;22447;44.530;18.620;2022-12-10T06:05:07;144.65;;;61.78;;
36415;SDS011;22447;44.530;18.620;2022-12-10T06:07:34;164.07;;;63.92;;
36415;SDS011;22447;44.530;18.620;2022-12-10T06:10:00;146.55;;;58.22;;
36415;SDS011;22447;44.530;18.620;2022-12-10T06:12:26;141.75;;;58.15;;
36415;SDS011;22447;44.530;18.620;2022-12-10T06:14:52;124.20;;;52.88;;
36415;SDS011;22447;44.530;18.620;2022-12-10T06:17:18;125.07;;;53.78;;
36415;SDS011;22447;44.530;18.620;2022-12-10T06:19:44;129.52;;;58.35;;
36415;SDS011;22447;44.530;18.620;2022-12-10T06:22:10;87.25;;;41.17;;
36415;SDS011;22447;44.530;18.620;2022-12-10T06:24:36;87.22;;;40.08;;
36415;SDS011;22447;44.530;18.620;2022-12-10T06:27:02;109.95;;;52.17;;
36415;SDS011;22447;44.530;18.620;2022-12-10T06:29:29;96.03;;;45.22;;
36415;SDS011;22447;44.530;18.620;2022-12-10T06:31:55;75.47;;;37.20;;
36415;SDS011;22447;44.530;18.620;2022-12-10T06:34:21;67.10;;;31.52;;
36415;SDS011;22447;44.530;18.620;2022-12-10T06:36:47;55.55;;;27.00;;
36415;SDS011;22447;44.530;18.620;2022-12-10T06:39:13;72.55;;;31.02;;
36415;SDS011;22447;44.530;18.620;2022-12-10T06:41:39;54.65;;;27.73;;
36415;SDS011;22447;44.530;18.620;2022-12-10T06:44:09;82.70;;;39.38;;
36415;SDS011;22447;44.530;18.620;2022-12-10T06:46:35;68.47;;;34.10;;
36415;SDS011;22447;44.530;18.620;2022-12-10T06:49:01;73.55;;;34.17;;
36415;SDS011;22447;44.530;18.620;2022-12-10T06:51:28;58.97;;;23.92;;
36415;SDS011;22447;44.530;18.620;2022-12-10T06:53:54;54.03;;;23.17;;
36415;SDS011;22447;44.530;18.620;2022-12-10T06:56:21;66.90;;;26.85;;
36415;SDS011;22447;44.530;18.620;2022-12-10T06:58:47;55.72;;;23.67;;
36415;SDS011;22447;44.530;18.620;2022-12-10T07:03:53;63.78;;;28.35;;
36415;SDS011;22447;44.530;18.620;2022-12-10T07:06:21;68.57;;;32.38;;
36415;SDS011;22447;44.530;18.620;2022-12-10T07:08:48;58.22;;;28.38;;
36415;SDS011;22447;44.530;18.620;2022-12-10T07:11:17;64.57;;;28.33;;
36415;SDS011;22447;44.530;18.620;2022-12-10T07:13:45;71.32;;;32.40;;
36415;SDS011;22447;44.530;18.620;2022-12-10T07:16:15;54.53;;;25.55;;
36415;SDS011;22447;44.530;18.620;2022-12-10T07:18:46;50.97;;;24.55;;
36415;SDS011;22447;44.530;18.620;2022-12-10T07:21:14;62.47;;;30.45;;
36415;SDS011;22447;44.530;18.620;2022-12-10T07:23:47;44.78;;;23.02;;
36415;SDS011;22447;44.530;18.620;2022-12-10T07:26:13;41.97;;;21.02;;
36415;SDS011;22447;44.530;18.620;2022-12-10T07:28:39;42.60;;;21.70;;
36415;SDS011;22447;44.530;18.620;2022-12-10T07:31:06;47.10;;;22.58;;
36415;SDS011;22447;44.530;18.620;2022-12-10T07:33:33;47.75;;;24.05;;
36415;SDS011;22447;44.530;18.620;2022-12-10T07:36:02;65.20;;;31.48;;
36415;SDS011;22447;44.530;18.620;2022-12-10T07:38:32;55.40;;;25.25;;
36415;SDS011;22447;44.530;18.620;2022-12-10T07:41:02;707.92;;;155.50;;
36415;SDS011;22447;44.530;18.620;2022-12-10T07:43:29;273.00;;;74.22;;
36415;SDS011;22447;44.530;18.620;2022-12-10T07:45:55;108.18;;;44.85;;
36415;SDS011;22447;44.530;18.620;2022-12-10T07:48:20;87.97;;;42.88;;
36415;SDS011;22447;44.530;18.620;2022-12-10T07:50:47;61.85;;;28.88;;
36415;SDS011;22447;44.530;18.620;2022-12-10T07:53:20;35.60;;;20.98;;
36415;SDS011;22447;44.530;18.620;2022-12-10T07:55:46;48.17;;;22.05;;
36415;SDS011;22447;44.530;18.620;2022-12-10T07:58:12;41.75;;;21.02;;
36415;SDS011;22447;44.530;18.620;2022-12-10T08:00:37;46.00;;;22.48;;
36415;SDS011;22447;44.530;18.620;2022-12-10T08:03:03;43.50;;;21.75;;
36415;SDS011;22447;44.530;18.620;2022-12-10T08:05:29;49.75;;;25.33;;
36415;SDS011;22447;44.530;18.620;2022-12-10T08:07:55;48.20;;;25.70;;
36415;SDS011;22447;44.530;18.620;2022-12-10T08:10:21;49.90;;;23.83;;
36415;SDS011;22447;44.530;18.620;2022-12-10T08:12:48;47.47;;;21.90;;
36415;SDS011;22447;44.530;18.620;2022-12-10T08:15:14;40.55;;;19.45;;
36415;SDS011;22447;44.530;18.620;2022-12-10T08:17:40;38.33;;;17.42;;
36415;SDS011;22447;44.530;18.620;2022-12-10T08:20:06;37.83;;;17.08;;
36415;SDS011;22447;44.530;18.620;2022-12-10T08:22:33;44.22;;;17.77;;
36415;SDS011;22447;44.530;18.620;2022-12-10T08:25:00;33.70;;;15.38;;
36415;SDS011;22447;44.530;18.620;2022-12-10T08:27:27;38.63;;;18.65;;
36415;SDS011;22447;44.530;18.620;2022-12-10T08:29:53;36.28;;;16.40;;
36415;SDS011;22447;44.530;18.620;2022-12-10T08:32:19;43.95;;;15.90;;
36415;SDS011;22447;44.530;18.620;2022-12-10T08:34:44;44.30;;;16.42;;
36415;SDS011;22447;44.530;18.620;2022-12-10T08:37:10;35.75;;;16.27;;
36415;SDS011;22447;44.530;18.620;2022-12-10T08:39:36;42.55;;;16.88;;
36415;SDS011;22447;44.530;18.620;2022-12-10T08:42:02;38.22;;;16.40;;
36415;SDS011;22447;44.530;18.620;2022-12-10T08:44:28;46.35;;;17.77;;
36415;SDS011;22447;44.530;18.620;2022-12-10T08:46:54;31.50;;;16.23;;
36415;SDS011;22447;44.530;18.620;2022-12-10T08:49:20;38.22;;;15.55;;
36415;SDS011;22447;44.530;18.620;2022-12-10T08:51:46;33.33;;;16.35;;
36415;SDS011;22447;44.530;18.620;2022-12-10T08:54:12;39.78;;;15.65;;
36415;SDS011;22447;44.530;18.620;2022-12-10T08:56:38;30.48;;;15.07;;
36415;SDS011;22447;44.530;18.620;2022-12-10T08:59:05;29.90;;;14.77;;
36415;SDS011;22447;44.530;18.620;2022-12-10T09:01:31;27.42;;;14.13;;
36415;SDS011;22447;44.530;18.620;2022-12-10T09:03:58;40.33;;;16.48;;
36415;SDS011;22447;44.530;18.620;2022-12-10T09:06:24;31.95;;;15.48;;
36415;SDS011;22447;44.530;18.620;2022-12-10T09:08:50;37.60;;;17.98;;
36415;SDS011;22447;44.530;18.620;2022-12-10T09:11:21;47.58;;;23.75;;
36415;SDS011;22447;44.530;18.620;2022-12-10T09:13:52;43.53;;;20.65;;
36415;SDS011;22447;44.530;18.620;2022-12-10T09:16:20;52.08;;;25.05;;
36415;SDS011;22447;44.530;18.620;2022-12-10T09:18:52;21.60;;;11.50;;
36415;SDS011;22447;44.530;18.620;2022-12-10T09:21:18;33.78;;;13.93;;
36415;SDS011;22447;44.530;18.620;2022-12-10T09:23:45;32.65;;;11.65;;
36415;SDS011;22447;44.530;18.620;2022-12-10T09:26:12;30.73;;;12.40;;
36415;SDS011;22447;44.530;18.620;2022-12-10T09:28:41;28.52;;;13.25;;
36415;SDS011;22447;44.530;18.620;2022-12-10T09:31:07;22.15;;;9.23;;
36415;SDS011;22447;44.530;18.620;2022-12-10T09:33:34;30.02;;;10.45;;
36415;SDS011;22447;44.530;18.620;2022-12-10T09:36:04;26.67;;;10.38;;
36415;SDS011;22447;44.530;18.620;2022-12-10T09:38:35;17.58;;;7.60;;
36415;SDS011;22447;44.530;18.620;2022-12-10T09:41:04;25.48;;;10.00;;
36415;SDS011;22447;44.530;18.620;2022-12-10T09:49:08;24.98;;;11.95;;
36415;SDS011;22447;44.530;18.620;2022-12-10T09:51:59;25.27;;;12.07;;
36415;SDS011;22447;44.530;18.620;2022-12-10T09:54:29;41.33;;;13.43;;
36415;SDS011;22447;44.530;18.620;2022-12-10T09:56:57;21.10;;;11.13;;
36415;SDS011;22447;44.530;18.620;2022-12-10T09:59:38;28.30;;;12.10;;
36415;SDS011;22447;44.530;18.620;2022-12-10T10:02:23;26.77;;;12.90;;
36415;SDS011;22447;44.530;18.620;2022-12-10T10:05:06;29.65;;;13.05;;
36415;SDS011;22447;44.530;18.620;2022-12-10T10:07:47;28.13;;;13.77;;
36415;SDS011;22447;44.530;18.620;2022-12-10T10:10:19;26.50;;;10.52;;
36415;SDS011;22447;44.530;18.620;2022-12-10T10:12:53;18.75;;;8.30;;
36415;SDS011;22447;44.530;18.620;2022-12-10T10:15:24;21.33;;;8.88;;
36415;SDS011;22447;44.530;18.620;2022-12-10T10:17:56;18.02;;;7.63;;
36415;SDS011;22447;44.530;18.620;2022-12-10T10:20:28;16.02;;;6.35;;
36415;SDS011;22447;44.530;18.620;2022-12-10T10:22:56;16.60;;;6.93;;
36415;SDS011;22447;44.530;18.620;2022-12-10T10:25:24;21.90;;;5.95;;
36415;SDS011;22447;44.530;18.620;2022-12-10T10:27:50;12.32;;;6.90;;
36415;SDS011;22447;44.530;18.620;2022-12-10T10:30:17;21.88;;;9.73;;
36415;SDS011;22447;44.530;18.620;2022-12-10T10:32:52;17.27;;;8.13;;
36415;SDS011;22447;44.530;18.620;2022-12-10T10:35:23;13.10;;;6.68;;
36415;SDS011;22447;44.530;18.620;2022-12-10T10:37:55;16.60;;;5.35;;
36415;SDS011;22447;44.530;18.620;2022-12-10T10:40:25;15.77;;;4.50;;
36415;SDS011;22447;44.530;18.620;2022-12-10T10:42:52;10.15;;;4.32;;
36415;SDS011;22447;44.530;18.620;2022-12-10T10:45:33;18.17;;;5.88;;
36415;SDS011;22447;44.530;18.620;2022-12-10T10:48:14;15.00;;;4.88;;
36415;SDS011;22447;44.530;18.620;2022-12-10T10:50:49;10.80;;;4.90;;
36415;SDS011;22447;44.530;18.620;2022-12-10T10:53:21;15.50;;;4.65;;
36415;SDS011;22447;44.530;18.620;2022-12-10T10:56:00;11.00;;;4.47;;
36415;SDS011;22447;44.530;18.620;2022-12-10T10:58:33;13.57;;;5.43;;
36415;SDS011;22447;44.530;18.620;2022-12-10T11:01:01;13.13;;;5.93;;
36415;SDS011;22447;44.530;18.620;2022-12-10T11:03:29;18.10;;;5.13;;
36415;SDS011;22447;44.530;18.620;2022-12-10T11:05:58;13.60;;;5.63;;
36415;SDS011;22447;44.530;18.620;2022-12-10T11:08:26;12.27;;;6.20;;
36415;SDS011;22447;44.530;18.620;2022-12-10T11:10:59;14.60;;;7.03;;
36415;SDS011;22447;44.530;18.620;2022-12-10T11:13:29;23.38;;;9.80;;
36415;SDS011;22447;44.530;18.620;2022-12-10T11:16:31;20.90;;;7.63;;
36415;SDS011;22447;44.530;18.620;2022-12-10T11:18:57;25.48;;;7.60;;
36415;SDS011;22447;44.530;18.620;2022-12-10T11:21:28;16.40;;;7.00;;
36415;SDS011;22447;44.530;18.620;2022-12-10T11:23:55;24.65;;;8.30;;
36415;SDS011;22447;44.530;18.620;2022-12-10T11:37:34;17.98;;;7.68;;
36415;SDS011;22447;44.530;18.620;2022-12-10T11:40:30;32.90;;;9.32;;
36415;SDS011;22447;44.530;18.620;2022-12-10T11:51:02;20.50;;;8.10;;
36415;SDS011;22447;44.530;18.620;2022-12-10T11:56:33;25.33;;;8.55;;
36415;SDS011;22447;44.530;18.620;2022-12-10T12:01:57;23.45;;;9.07;;
36415;SDS011;22447;44.530;18.620;2022-12-10T12:07:32;30.27;;;10.73;;
36415;SDS011;22447;44.530;18.620;2022-12-10T12:13:14;31.95;;;10.88;;
36415;SDS011;22447;44.530;18.620;2022-12-10T12:15:57;29.02;;;11.23;;
36415;SDS011;22447;44.530;18.620;2022-12-10T12:18:35;24.10;;;10.80;;
36415;SDS011;22447;44.530;18.620;2022-12-10T12:21:10;46.08;;;14.75;;
36415;SDS011;22447;44.530;18.620;2022-12-10T12:26:15;43.72;;;19.77;;
36415;SDS011;22447;44.530;18.620;2022-12-10T12:29:40;39.90;;;16.05;;
36415;SDS011;22447;44.530;18.620;2022-12-10T12:32:03;31.48;;;12.07;;
36415;SDS011;22447;44.530;18.620;2022-12-10T12:37:13;25.15;;;12.10;;
36415;SDS011;22447;44.530;18.620;2022-12-10T12:39:43;29.55;;;13.63;;
36415;SDS011;22447;44.530;18.620;2022-12-10T12:44:58;42.85;;;18.63;;
36415;SDS011;22447;44.530;18.620;2022-12-10T12:50:46;51.30;;;25.52;;
36415;SDS011;22447;44.530;18.620;2022-12-10T12:53:39;51.97;;;29.05;;
36415;SDS011;22447;44.530;18.620;2022-12-10T12:56:07;57.95;;;29.17;;
36415;SDS011;22447;44.530;18.620;2022-12-10T13:01:51;62.63;;;32.30;;
36415;SDS011;22447;44.530;18.620;2022-12-10T13:04:23;56.80;;;30.17;;
36415;SDS011;22447;44.530;18.620;2022-12-10T13:09:42;58.35;;;30.67;;
36415;SDS011;22447;44.530;18.620;2022-12-10T13:20:40;76.90;;;37.05;;
36415;SDS011;22447;44.530;18.620;2022-12-10T13:23:46;84.55;;;39.55;;
36415;SDS011;22447;44.530;18.620;2022-12-10T13:26:26;88.57;;;41.35;;
36415;SDS011;22447;44.530;18.620;2022-12-10T13:28:55;87.72;;;40.55;;
36415;SDS011;22447;44.530;18.620;2022-12-10T13:31:37;90.50;;;40.80;;
36415;SDS011;22447;44.530;18.620;2022-12-10T13:34:06;88.15;;;40.75;;
36415;SDS011;22447;44.530;18.620;2022-12-10T13:39:20;87.55;;;39.85;;
36415;SDS011;22447;44.530;18.620;2022-12-10T13:44:50;98.57;;;46.45;;
36415;SDS011;22447;44.530;18.620;2022-12-10T13:47:52;102.18;;;46.90;;
36415;SDS011;22447;44.530;18.620;2022-12-10T13:50:40;110.07;;;49.72;;
36415;SDS011;22447;44.530;18.620;2022-12-10T13:53:26;113.28;;;48.25;;
36415;SDS011;22447;44.530;18.620;2022-12-10T13:56:08;113.55;;;49.53;;
36415;SDS011;22447;44.530;18.620;2022-12-10T13:59:10;128.43;;;55.15;;
36415;SDS011;22447;44.530;18.620;2022-12-10T14:01:48;122.53;;;53.38;;
36415;SDS011;22447;44.530;18.620;2022-12-10T14:07:16;132.77;;;59.30;;
36415;SDS011;22447;44.530;18.620;2022-12-10T14:09:48;134.68;;;64.85;;
36415;SDS011;22447;44.530;18.620;2022-12-10T14:12:18;137.27;;;63.90;;
36415;SDS011;22447;44.530;18.620;2022-12-10T14:15:02;151.07;;;68.00;;
36415;SDS011;22447;44.530;18.620;2022-12-10T14:17:34;143.35;;;62.63;;
36415;SDS011;22447;44.530;18.620;2022-12-10T14:20:06;135.57;;;61.75;;
36415;SDS011;22447;44.530;18.620;2022-12-10T14:22:35;116.03;;;57.63;;
36415;SDS011;22447;44.530;18.620;2022-12-10T14:25:05;117.15;;;53.78;;
36415;SDS011;22447;44.530;18.620;2022-12-10T14:27:37;126.93;;;54.60;;
36415;SDS011;22447;44.530;18.620;2022-12-10T14:30:04;85.45;;;42.90;;
36415;SDS011;22447;44.530;18.620;2022-12-10T14:32:40;105.55;;;45.60;;
36415;SDS011;22447;44.530;18.620;2022-12-10T14:35:07;101.32;;;41.72;;
36415;SDS011;22447;44.530;18.620;2022-12-10T14:37:39;71.95;;;34.22;;
36415;SDS011;22447;44.530;18.620;2022-12-10T14:40:08;46.70;;;23.10;;
36415;SDS011;22447;44.530;18.620;2022-12-10T14:42:42;49.28;;;19.92;;
36415;SDS011;22447;44.530;18.620;2022-12-10T14:45:11;39.75;;;15.43;;
36415;SDS011;22447;44.530;18.620;2022-12-10T14:47:40;35.47;;;17.85;;
36415;SDS011;22447;44.530;18.620;2022-12-10T14:50:09;37.83;;;17.08;;
36415;SDS011;22447;44.530;18.620;2022-12-10T14:52:43;39.35;;;18.48;;
36415;SDS011;22447;44.530;18.620;2022-12-10T14:55:19;49.00;;;21.17;;
36415;SDS011;22447;44.530;18.620;2022-12-10T14:57:56;46.60;;;23.90;;
36415;SDS011;22447;44.530;18.620;2022-12-10T15:00:27;32.60;;;20.50;;
36415;SDS011;22447;44.530;18.620;2022-12-10T15:02:53;35.25;;;19.20;;
36415;SDS011;22447;44.530;18.620;2022-12-10T15:05:29;31.00;;;19.73;;
36415;SDS011;22447;44.530;18.620;2022-12-10T15:07:57;30.65;;;19.30;;
36415;SDS011;22447;44.530;18.620;2022-12-10T15:10:34;25.52;;;15.88;;
36415;SDS011;22447;44.530;18.620;2022-12-10T15:13:54;32.20;;;16.13;;
36415;SDS011;22447;44.530;18.620;2022-12-10T15:16:05;22.63;;;14.90;;
36415;SDS011;22447;44.530;18.620;2022-12-10T15:18:40;25.67;;;15.35;;
36415;SDS011;22447;44.530;18.620;2022-12-10T15:23:39;27.90;;;15.93;;
36415;SDS011;22447;44.530;18.620;2022-12-10T15:31:49;23.48;;;14.52;;
36415;SDS011;22447;44.530;18.620;2022-12-10T15:34:19;26.58;;;14.98;;
36415;SDS011;22447;44.530;18.620;2022-12-10T15:36:49;22.88;;;13.73;;
36415;SDS011;22447;44.530;18.620;2022-12-10T15:41:53;27.45;;;14.35;;
36415;SDS011;22447;44.530;18.620;2022-12-10T15:47:12;23.75;;;14.13;;
36415;SDS011;22447;44.530;18.620;2022-12-10T15:49:51;27.42;;;12.90;;
36415;SDS011;22447;44.530;18.620;2022-12-10T15:52:20;24.67;;;12.23;;
36415;SDS011;22447;44.530;18.620;2022-12-10T15:54:57;19.27;;;11.18;;
36415;SDS011;22447;44.530;18.620;2022-12-10T15:59:55;23.63;;;12.43;;
36415;SDS011;22447;44.530;18.620;2022-12-10T16:02:46;19.23;;;10.27;;
36415;SDS011;22447;44.530;18.620;2022-12-10T16:05:23;24.17;;;11.90;;
36415;SDS011;22447;44.530;18.620;2022-12-10T16:07:52;22.85;;;12.82;;
36415;SDS011;22447;44.530;18.620;2022-12-10T16:10:20;25.52;;;13.88;;